Time;durP1;ratioP1;P1;durP2;ratioP2;P2;SDS_P1;SDS_P2;PMS_P1;PMS_P2;Temp;Humidity;BMP_temperature;BMP_pressure;BME280_temperature;BME280_humidity;BME280_pressure;Samples;Min_cycle;Max_cycle;Signal;HPM_P1;HPM_P2
2023/04/07 00:01:31;;;;;;;;;;;14.00;46.30;;;;;;5034734;28;19910;-62
2023/04/07 00:03:56;;;;;;;;;;;14.00;46.30;;;;;;5035074;28;19917;-60
2023/04/07 00:06:22;;;;;;;;;;;14.00;46.60;;;;;;5034517;28;19909;-60
2023/04/07 00:08:47;;;;;;;;;;;13.90;46.40;;;;;;5035274;28;19917;-61
2023/04/07 00:11:13;;;;;;;;;;;13.90;46.50;;;;;;5034626;28;20307;-61
2023/04/07 00:13:38;;;;;;;;;;;13.90;46.40;;;;;;5034758;28;20361;-61
2023/04/07 00:16:04;;;;;;;;;;;13.90;46.40;;;;;;5034448;28;19996;-61
2023/04/07 00:18:29;;;;;;;;;;;13.80;46.80;;;;;;5033141;28;19952;-61
2023/04/07 00:20:55;;;;;;;;;;;13.80;46.70;;;;;;5034258;28;19913;-63
2023/04/07 00:23:20;;;;;;;;;;;13.90;46.70;;;;;;5034866;28;19917;-61
2023/04/07 00:25:47;;;;;;;;;;;13.80;46.80;;;;;;5034390;28;19909;-61
2023/04/07 00:28:12;;;;;;;;;;;13.80;46.90;;;;;;5034314;28;19921;-61
2023/04/07 00:30:37;;;;;;;;;;;13.80;47.10;;;;;;5034085;28;19986;-61
2023/04/07 00:33:03;;;;;;;;;;;13.80;47.20;;;;;;5034195;28;20424;-61
2023/04/07 00:35:28;;;;;;;;;;;13.90;47.10;;;;;;5042701;28;20007;-61
2023/04/07 00:37:54;;;;;;;;;;;14.00;46.80;;;;;;5054193;28;19923;-61
2023/04/07 00:40:19;;;;;;;;;;;14.00;46.70;;;;;;5053931;28;20009;-61
2023/04/07 00:42:45;;;;;;;;;;;14.00;46.70;;;;;;5053928;28;19949;-61
2023/04/07 00:45:10;;;;;;;;;;;14.00;46.80;;;;;;5053805;28;20291;-61
2023/04/07 00:47:36;;;;;;;;;;;14.00;46.50;;;;;;5053626;28;19943;-61
2023/04/07 00:50:04;;;;;;;;;;;14.10;46.40;;;;;;5052545;28;19959;-62
2023/04/07 00:52:31;;;;;;;;;;;14.10;46.30;;;;;;5042925;28;20012;-61
2023/04/07 00:54:57;;;;;;;;;;;14.00;46.50;;;;;;5033821;28;20414;-61
2023/04/07 00:57:24;;;;;;;;;;;14.00;46.50;;;;;;5033694;28;19917;-61
2023/04/07 00:59:50;;;;;;;;;;;14.00;46.50;;;;;;5033339;28;19920;-59
2023/04/07 01:02:17;;;;;;;;;;;14.10;46.50;;;;;;5033514;28;19917;-61
2023/04/07 01:05:01;;;;;;;;;;;14.10;46.40;;;;;;5033229;28;19913;-60
2023/04/07 01:07:31;;;;;;;;;;;14.10;46.30;;;;;;5033167;28;19970;-60
2023/04/07 01:10:00;;;;;;;;;;;14.10;46.40;;;;;;5033431;28;19909;-60
2023/04/07 01:12:38;;;;;;;;;;;14.10;46.40;;;;;;5033422;28;20310;-60
2023/04/07 01:15:08;;;;;;;;;;;14.00;46.50;;;;;;5033162;28;19924;-60
2023/04/07 01:17:34;;;;;;;;;;;14.00;46.40;;;;;;5033153;28;19924;-59
2023/04/07 01:20:06;;;;;;;;;;;14.00;46.40;;;;;;5032788;28;19909;-60
2023/04/07 01:22:38;;;;;;;;;;;14.10;46.40;;;;;;5033059;28;20379;-60
2023/04/07 01:25:22;;;;;;;;;;;14.10;46.30;;;;;;5033064;28;19909;-59
2023/04/07 01:27:58;;;;;;;;;;;14.10;46.30;;;;;;5032723;28;19921;-60
2023/04/07 01:30:26;;;;;;;;;;;14.10;46.20;;;;;;5032869;28;20392;-59
2023/04/07 01:32:52;;;;;;;;;;;14.10;46.20;;;;;;5032948;28;19966;-62
2023/04/07 01:35:18;;;;;;;;;;;14.10;46.10;;;;;;5039777;28;19909;-59
2023/04/07 01:37:47;;;;;;;;;;;14.10;46.10;;;;;;5052257;28;19917;-60
2023/04/07 01:40:14;;;;;;;;;;;14.10;46.10;;;;;;5052350;28;19920;-59
2023/04/07 01:42:40;;;;;;;;;;;14.10;46.10;;;;;;5052610;28;19921;-60
2023/04/07 01:45:06;;;;;;;;;;;14.10;46.20;;;;;;5052623;28;19909;-60
2023/04/07 01:47:32;;;;;;;;;;;14.10;46.10;;;;;;5052179;28;19960;-60
2023/04/07 01:49:58;;;;;;;;;;;14.00;46.30;;;;;;5052265;28;19947;-59
2023/04/07 01:52:26;;;;;;;;;;;14.00;46.80;;;;;;5042374;28;19917;-59
2023/04/07 01:54:53;;;;;;;;;;;13.90;47.10;;;;;;5032022;28;19909;-59
2023/04/07 01:57:18;;;;;;;;;;;13.80;47.80;;;;;;5032459;28;19917;-59
2023/04/07 01:59:44;;;;;;;;;;;13.70;48.60;;;;;;5032037;28;19909;-59
2023/04/07 02:02:09;;;;;;;;;;;13.60;49.00;;;;;;5032172;28;19916;-58
2023/04/07 02:04:50;;;;;;;;;;;13.50;49.90;;;;;;5031976;28;20027;-59
2023/04/07 02:07:19;;;;;;;;;;;13.40;50.50;;;;;;5032147;28;20361;-59
2023/04/07 02:09:45;;;;;;;;;;;13.30;51.80;;;;;;5032343;28;20369;-62
2023/04/07 02:12:12;;;;;;;;;;;13.20;52.80;;;;;;5032161;28;20022;-62
2023/04/07 02:14:38;;;;;;;;;;;13.20;53.50;;;;;;5031164;28;19913;-60
2023/04/07 02:17:04;;;;;;;;;;;13.10;54.30;;;;;;5031584;28;19909;-60
2023/04/07 02:19:29;;;;;;;;;;;13.10;54.90;;;;;;5031518;28;20008;-60
2023/04/07 02:21:55;;;;;;;;;;;13.00;55.40;;;;;;5031566;28;19913;-60
2023/04/07 02:24:21;;;;;;;;;;;13.00;55.90;;;;;;5031641;28;19913;-60
2023/04/07 02:26:46;;;;;;;;;;;13.00;56.30;;;;;;5031735;28;19963;-60
2023/04/07 02:29:12;;;;;;;;;;;13.00;56.80;;;;;;5032000;28;19968;-60
2023/04/07 02:31:37;;;;;;;;;;;12.90;56.90;;;;;;5031382;28;19963;-60
2023/04/07 02:34:03;;;;;;;;;;;12.90;57.20;;;;;;5031899;28;19917;-63
2023/04/07 02:36:28;;;;;;;;;;;12.90;57.50;;;;;;5048455;28;19913;-60
2023/04/07 02:38:54;;;;;;;;;;;12.80;57.80;;;;;;5051212;28;19932;-60
2023/04/07 02:41:20;;;;;;;;;;;12.80;57.80;;;;;;5051627;28;20382;-60
2023/04/07 02:43:45;;;;;;;;;;;12.80;58.20;;;;;;5051584;28;20004;-60
2023/04/07 02:46:11;;;;;;;;;;;12.80;58.70;;;;;;5051321;28;19909;-60
2023/04/07 02:48:36;;;;;;;;;;;12.80;59.10;;;;;;5051334;28;20275;-60
2023/04/07 02:51:02;;;;;;;;;;;12.80;59.30;;;;;;5051234;28;20372;-60
2023/04/07 02:53:27;;;;;;;;;;;12.80;59.60;;;;;;5032466;28;20055;-60
2023/04/07 02:55:52;;;;;;;;;;;12.80;59.80;;;;;;5031223;28;19955;-60
2023/04/07 02:58:18;;;;;;;;;;;12.70;60.00;;;;;;5031400;28;20008;-61
2023/04/07 03:00:43;;;;;;;;;;;12.70;60.30;;;;;;5031252;28;20280;-60
2023/04/07 03:03:09;;;;;;;;;;;12.70;60.60;;;;;;5031564;28;20369;-60
2023/04/07 03:05:34;;;;;;;;;;;12.70;60.90;;;;;;5031292;28;19948;-60
2023/04/07 03:08:00;;;;;;;;;;;12.70;61.10;;;;;;5031126;28;19928;-60
2023/04/07 03:10:25;;;;;;;;;;;12.70;61.20;;;;;;5031691;28;19909;-60
2023/04/07 03:12:50;;;;;;;;;;;12.70;61.10;;;;;;5030633;28;20023;-60
2023/04/07 03:15:16;;;;;;;;;;;12.60;61.40;;;;;;5031417;28;20345;-60
2023/04/07 03:17:41;;;;;;;;;;;12.60;61.40;;;;;;5031130;28;19917;-61
2023/04/07 03:20:07;;;;;;;;;;;12.60;61.60;;;;;;5030971;28;19910;-60
2023/04/07 03:22:33;;;;;;;;;;;12.60;61.60;;;;;;5031038;28;19917;-60
2023/04/07 03:24:58;;;;;;;;;;;12.60;61.80;;;;;;5031137;28;19917;-60
2023/04/07 03:27:23;;;;;;;;;;;12.60;61.90;;;;;;5031158;28;19921;-60
2023/04/07 03:29:50;;;;;;;;;;;12.50;61.90;;;;;;5030788;28;19910;-60
2023/04/07 03:32:15;;;;;;;;;;;12.50;61.90;;;;;;5031192;28;19918;-61
2023/04/07 03:34:41;;;;;;;;;;;12.50;61.90;;;;;;5032826;28;19910;-60
2023/04/07 03:37:06;;;;;;;;;;;12.50;61.90;;;;;;5050787;28;19909;-60
2023/04/07 03:39:31;;;;;;;;;;;12.50;62.20;;;;;;5050841;28;19920;-60
2023/04/07 03:41:57;;;;;;;;;;;12.50;62.10;;;;;;5050665;28;19931;-60
2023/04/07 03:44:22;;;;;;;;;;;12.50;62.10;;;;;;5050687;28;19909;-60
2023/04/07 03:46:49;;;;;;;;;;;12.50;62.10;;;;;;5050664;28;20015;-60
2023/04/07 03:49:15;;;;;;;;;;;12.50;62.30;;;;;;5051177;28;20323;-60
2023/04/07 03:51:40;;;;;;;;;;;12.50;62.20;;;;;;5046553;28;19940;-60
2023/04/07 03:54:06;;;;;;;;;;;12.50;62.30;;;;;;5031280;28;19928;-60
2023/04/07 03:56:31;;;;;;;;;;;12.50;62.40;;;;;;5030649;28;19913;-60
2023/04/07 03:58:56;;;;;;;;;;;12.50;62.30;;;;;;5030868;28;20352;-60
2023/04/07 04:01:22;;;;;;;;;;;12.50;62.40;;;;;;5030715;28;19944;-60
2023/04/07 04:03:48;;;;;;;;;;;12.50;62.50;;;;;;5030817;28;19917;-60
2023/04/07 04:06:14;;;;;;;;;;;12.50;62.40;;;;;;5030606;28;19913;-60
2023/04/07 04:08:39;;;;;;;;;;;12.50;62.40;;;;;;5030990;28;19932;-60
2023/04/07 04:11:05;;;;;;;;;;;12.50;62.40;;;;;;5030693;28;19936;-60
2023/04/07 04:13:31;;;;;;;;;;;12.50;62.60;;;;;;5030354;28;19917;-60
2023/04/07 04:15:56;;;;;;;;;;;12.50;62.50;;;;;;5030358;28;20385;-60
2023/04/07 04:18:22;;;;;;;;;;;12.50;62.50;;;;;;5030743;28;19924;-60
2023/04/07 04:20:47;;;;;;;;;;;12.50;62.50;;;;;;5030367;28;19909;-60
2023/04/07 04:23:13;;;;;;;;;;;12.50;62.60;;;;;;5031026;28;19925;-60
2023/04/07 04:25:39;;;;;;;;;;;12.50;62.50;;;;;;5034262;28;20017;-60
2023/04/07 04:28:05;;;;;;;;;;;12.50;62.50;;;;;;5034031;28;20019;-60
2023/04/07 04:30:30;;;;;;;;;;;12.50;62.50;;;;;;5034127;28;19980;-62
2023/04/07 04:32:56;;;;;;;;;;;12.50;62.50;;;;;;5033991;28;20359;-61
2023/04/07 04:35:21;;;;;;;;;;;12.50;62.50;;;;;;5041652;28;19916;-60
2023/04/07 04:37:47;;;;;;;;;;;12.50;62.60;;;;;;5054111;28;19948;-60
2023/04/07 04:40:13;;;;;;;;;;;12.50;62.60;;;;;;5053837;28;19921;-60
2023/04/07 04:42:39;;;;;;;;;;;12.50;62.60;;;;;;5053759;28;19925;-60
2023/04/07 04:45:04;;;;;;;;;;;12.50;62.70;;;;;;5053745;28;19909;-60
2023/04/07 04:47:30;;;;;;;;;;;12.50;62.70;;;;;;5053746;28;20398;-60
2023/04/07 04:49:55;;;;;;;;;;;12.50;62.60;;;;;;5053497;28;19956;-59
2023/04/07 04:52:21;;;;;;;;;;;12.50;62.70;;;;;;5043773;28;19917;-59
2023/04/07 04:54:46;;;;;;;;;;;12.50;62.80;;;;;;5033714;28;20004;-60
2023/04/07 04:57:12;;;;;;;;;;;12.50;62.80;;;;;;5033574;28;19909;-60
2023/04/07 04:59:38;;;;;;;;;;;12.50;63.00;;;;;;5032057;28;20015;-60
2023/04/07 05:02:04;;;;;;;;;;;12.50;63.10;;;;;;5033299;28;19909;-59
2023/04/07 05:04:29;;;;;;;;;;;12.50;63.10;;;;;;5033289;28;20284;-59
2023/04/07 05:06:55;;;;;;;;;;;12.50;63.20;;;;;;5033291;28;19940;-60
2023/04/07 05:09:20;;;;;;;;;;;12.60;63.50;;;;;;5033510;28;19923;-60
2023/04/07 05:11:45;;;;;;;;;;;12.70;63.50;;;;;;5033446;28;19917;-60
2023/04/07 05:14:11;;;;;;;;;;;12.70;63.60;;;;;;5033544;28;19914;-60
2023/04/07 05:16:36;;;;;;;;;;;12.80;63.60;;;;;;5033092;28;19917;-66
2023/04/07 05:19:02;;;;;;;;;;;12.90;63.70;;;;;;5033421;28;19913;-60
2023/04/07 05:21:27;;;;;;;;;;;13.00;63.80;;;;;;5033005;28;19913;-60
2023/04/07 05:23:53;;;;;;;;;;;13.00;63.60;;;;;;5032745;28;19917;-59
2023/04/07 05:26:18;;;;;;;;;;;13.10;63.70;;;;;;5033294;28;19921;-61
2023/04/07 05:28:44;;;;;;;;;;;13.10;63.40;;;;;;5033246;28;20431;-60
2023/04/07 05:31:09;;;;;;;;;;;13.20;63.50;;;;;;5032893;28;19913;-60
2023/04/07 05:33:35;;;;;;;;;;;13.20;63.40;;;;;;5033157;28;20379;-60
2023/04/07 05:36:00;;;;;;;;;;;13.20;63.50;;;;;;5045073;28;19913;-64
2023/04/07 05:38:26;;;;;;;;;;;13.30;63.40;;;;;;5052807;28;19920;-60
2023/04/07 05:40:51;;;;;;;;;;;13.20;63.30;;;;;;5052680;28;19916;-59
2023/04/07 05:43:17;;;;;;;;;;;13.20;63.40;;;;;;5052538;28;20025;-62
2023/04/07 05:45:42;;;;;;;;;;;13.20;63.30;;;;;;5052270;28;20142;-60
2023/04/07 05:48:07;;;;;;;;;;;13.30;63.50;;;;;;5052260;28;20110;-60
2023/04/07 05:50:33;;;;;;;;;;;13.30;63.50;;;;;;5037072;28;19913;-60
2023/04/07 05:53:00;;;;;;;;;;;13.30;63.50;;;;;;5024577;28;21297;-65
2023/04/07 05:55:26;;;;;;;;;;;13.30;63.50;;;;;;5032487;28;19909;-63
2023/04/07 05:57:52;;;;;;;;;;;13.30;63.80;;;;;;5032321;28;19996;-60
2023/04/07 06:00:18;;;;;;;;;;;13.30;63.80;;;;;;5032391;28;20008;-60
2023/04/07 06:02:44;;;;;;;;;;;13.40;63.60;;;;;;5032366;28;19924;-60
2023/04/07 06:05:09;;;;;;;;;;;13.30;63.60;;;;;;5032092;28;19913;-59
2023/04/07 06:07:35;;;;;;;;;;;13.40;63.60;;;;;;5047643;28;19917;-60
2023/04/07 06:10:00;;;;;;;;;;;13.40;63.60;;;;;;5032171;28;19956;-60
2023/04/07 06:12:26;;;;;;;;;;;13.40;63.70;;;;;;5032656;28;19920;-59
2023/04/07 06:14:52;;;;;;;;;;;13.40;63.80;;;;;;5032034;28;19914;-59
2023/04/07 06:17:17;;;;;;;;;;;13.40;63.80;;;;;;5032121;28;20293;-59
2023/04/07 06:19:43;;;;;;;;;;;13.40;63.70;;;;;;5032278;28;19919;-62
2023/04/07 06:22:09;;;;;;;;;;;13.40;63.70;;;;;;5032306;28;19917;-60
2023/04/07 06:24:34;;;;;;;;;;;13.50;63.80;;;;;;5032017;28;19923;-60
2023/04/07 06:27:00;;;;;;;;;;;13.50;63.90;;;;;;5031943;28;19921;-60
2023/04/07 06:29:26;;;;;;;;;;;13.60;64.10;;;;;;5032306;28;19917;-60
2023/04/07 06:31:52;;;;;;;;;;;13.70;63.90;;;;;;5031701;28;19996;-60
2023/04/07 06:34:17;;;;;;;;;;;13.70;64.00;;;;;;5032163;28;19913;-65
2023/04/07 06:36:42;;;;;;;;;;;13.80;63.70;;;;;;5050565;28;19913;-60
2023/04/07 06:39:08;;;;;;;;;;;13.90;63.70;;;;;;5051602;28;19936;-60
2023/04/07 06:41:33;;;;;;;;;;;13.90;63.90;;;;;;5051538;28;19908;-60
2023/04/07 06:43:59;;;;;;;;;;;14.10;63.80;;;;;;5050472;28;19943;-60
2023/04/07 06:46:25;;;;;;;;;;;14.10;63.60;;;;;;5032766;28;20003;-59
2023/04/07 06:48:51;;;;;;;;;;;14.20;63.60;;;;;;5031384;28;19921;-60
2023/04/07 06:51:16;;;;;;;;;;;14.30;63.60;;;;;;5031532;28;20288;-60
2023/04/07 06:53:43;;;;;;;;;;;14.30;63.50;;;;;;5031627;28;19924;-59
2023/04/07 06:56:09;;;;;;;;;;;14.40;63.30;;;;;;5031442;28;19916;-60
2023/04/07 06:58:35;;;;;;;;;;;14.40;63.50;;;;;;5031613;28;20411;-59
2023/04/07 07:01:00;;;;;;;;;;;14.50;63.40;;;;;;5031461;28;19909;-61
2023/04/07 07:03:26;;;;;;;;;;;14.60;63.40;;;;;;5031466;28;20504;-60
2023/04/07 07:05:53;;;;;;;;;;;14.70;63.50;;;;;;5031741;28;20245;-60
2023/04/07 07:08:18;;;;;;;;;;;14.70;62.60;;;;;;5031532;28;20014;-60
2023/04/07 07:10:44;;;;;;;;;;;14.80;63.10;;;;;;5030984;28;20372;-60
2023/04/07 07:13:09;;;;;;;;;;;14.80;62.90;;;;;;5031064;28;19917;-60
2023/04/07 07:15:35;;;;;;;;;;;15.00;63.30;;;;;;5031757;28;20003;-63
2023/04/07 07:18:00;;;;;;;;;;;15.00;63.20;;;;;;5031632;28;20406;-62
2023/04/07 07:20:26;;;;;;;;;;;15.10;62.90;;;;;;5031247;28;19936;-61
2023/04/07 07:22:51;;;;;;;;;;;15.20;63.20;;;;;;5029786;28;19967;-61
2023/04/07 07:25:17;;;;;;;;;;;15.20;62.60;;;;;;5029774;28;20289;-60
2023/04/07 07:27:42;;;;;;;;;;;15.30;62.80;;;;;;5030970;28;19928;-60
2023/04/07 07:30:08;;;;;;;;;;;15.30;62.50;;;;;;5031069;28;19917;-60
2023/04/07 07:32:33;;;;;;;;;;;15.40;62.50;;;;;;5031092;28;19917;-60
2023/04/07 07:34:59;;;;;;;;;;;15.50;62.30;;;;;;5035705;28;19916;-60
2023/04/07 07:37:24;;;;;;;;;;;15.50;62.30;;;;;;5051349;28;19979;-62
2023/04/07 07:39:50;;;;;;;;;;;15.70;62.40;;;;;;5051197;28;19917;-65
2023/04/07 07:42:15;;;;;;;;;;;15.70;62.10;;;;;;5051224;28;19917;-61
2023/04/07 07:44:41;;;;;;;;;;;15.80;61.90;;;;;;5047562;28;20266;-61
2023/04/07 07:47:07;;;;;;;;;;;16.00;62.30;;;;;;5031183;28;19920;-61
2023/04/07 07:49:32;;;;;;;;;;;16.10;61.80;;;;;;5031338;28;19996;-61
2023/04/07 07:51:58;;;;;;;;;;;16.20;61.70;;;;;;5031218;28;19909;-64
2023/04/07 07:54:24;;;;;;;;;;;16.30;61.80;;;;;;5031240;28;19909;-62
2023/04/07 07:56:50;;;;;;;;;;;16.50;62.00;;;;;;5031588;28;19964;-62
2023/04/07 07:59:15;;;;;;;;;;;16.70;62.40;;;;;;5033526;28;19917;-60
2023/04/07 08:01:41;;;;;;;;;;;16.80;61.60;;;;;;5035027;28;19947;-64
2023/04/07 08:04:06;;;;;;;;;;;16.90;61.30;;;;;;5035467;28;19924;-61
2023/04/07 08:06:32;;;;;;;;;;;17.00;61.00;;;;;;5035003;28;19913;-66
2023/04/07 08:08:57;;;;;;;;;;;17.10;60.20;;;;;;5035230;28;20428;-60
2023/04/07 08:11:23;;;;;;;;;;;17.20;60.20;;;;;;5034917;28;19935;-61
2023/04/07 08:13:48;;;;;;;;;;;17.30;60.50;;;;;;5035045;28;19921;-62
2023/04/07 08:16:14;;;;;;;;;;;17.30;59.50;;;;;;5034916;28;19909;-60
2023/04/07 08:18:39;;;;;;;;;;;17.40;59.30;;;;;;5035019;28;19921;-64
2023/04/07 08:21:05;;;;;;;;;;;17.50;60.60;;;;;;5034714;28;19948;-61
2023/04/07 08:23:31;;;;;;;;;;;17.70;59.40;;;;;;5034479;28;19921;-64
2023/04/07 08:25:56;;;;;;;;;;;17.70;59.50;;;;;;5034603;28;19960;-60
2023/04/07 08:28:23;;;;;;;;;;;17.80;59.30;;;;;;5034967;28;19976;-59
2023/04/07 08:30:48;;;;;;;;;;;17.80;58.80;;;;;;5033367;28;20000;-63
2023/04/07 08:33:14;;;;;;;;;;;18.00;58.50;;;;;;5031940;28;20008;-62
2023/04/07 08:35:39;;;;;;;;;;;18.10;59.00;;;;;;5031635;28;20075;-59
2023/04/07 08:38:06;;;;;;;;;;;18.30;56.90;;;;;;5029869;28;20019;-60
2023/04/07 08:40:32;;;;;;;;;;;18.30;56.50;;;;;;5026675;28;20263;-59
2023/04/07 08:42:59;;;;;;;;;;;18.50;57.40;;;;;;5031956;28;19917;-60
2023/04/07 08:45:25;;;;;;;;;;;18.70;57.00;;;;;;5033783;28;19952;-63
2023/04/07 08:47:53;;;;;;;;;;;18.80;57.20;;;;;;5033313;28;19954;-60
2023/04/07 08:50:20;;;;;;;;;;;19.10;56.20;;;;;;5033620;28;19952;-61
2023/04/07 08:52:56;;;;;;;;;;;19.30;56.30;;;;;;5033834;28;19918;-60
2023/04/07 08:55:22;;;;;;;;;;;19.40;56.10;;;;;;5031734;28;19951;-61
2023/04/07 08:57:47;;;;;;;;;;;19.50;55.60;;;;;;5031603;28;20457;-60
2023/04/07 09:00:13;;;;;;;;;;;19.60;54.40;;;;;;5033328;28;19920;-60
2023/04/07 09:02:40;;;;;;;;;;;19.60;52.80;;;;;;5033655;28;19969;-59
2023/04/07 09:05:07;;;;;;;;;;;19.50;52.20;;;;;;5033390;28;19917;-65
2023/04/07 09:07:33;;;;;;;;;;;19.50;51.10;;;;;;5033180;28;19921;-62
2023/04/07 09:09:59;;;;;;;;;;;19.60;51.20;;;;;;5032887;28;19949;-63
2023/04/07 09:12:26;;;;;;;;;;;19.70;51.60;;;;;;5033534;28;20356;-62
2023/04/07 09:14:51;;;;;;;;;;;19.90;52.30;;;;;;5033529;28;19917;-59
2023/04/07 09:17:17;;;;;;;;;;;20.10;52.20;;;;;;5033493;28;20365;-64
2023/04/07 09:19:42;;;;;;;;;;;20.40;51.10;;;;;;5033454;28;19940;-63
2023/04/07 09:22:11;;;;;;;;;;;20.60;50.30;;;;;;5034485;28;20478;-59
2023/04/07 09:24:37;;;;;;;;;;;20.60;47.40;;;;;;5027669;28;19924;-59
2023/04/07 09:27:09;;;;;;;;;;;20.40;45.50;;;;;;5032240;28;20015;-62
2023/04/07 09:29:34;;;;;;;;;;;20.40;45.30;;;;;;5031251;28;19936;-57
2023/04/07 09:32:00;;;;;;;;;;;20.30;46.50;;;;;;5028714;28;19913;-58
2023/04/07 09:34:27;;;;;;;;;;;20.30;45.00;;;;;;5030366;28;19912;-59
2023/04/07 09:36:52;;;;;;;;;;;20.30;44.60;;;;;;5051212;28;19924;-58
2023/04/07 09:39:18;;;;;;;;;;;20.30;44.50;;;;;;5034964;28;19921;-58
2023/04/07 09:41:44;;;;;;;;;;;20.30;44.50;;;;;;5032583;28;20004;-57
2023/04/07 09:44:09;;;;;;;;;;;20.30;43.30;;;;;;5032614;28;19924;-57
2023/04/07 09:46:35;;;;;;;;;;;20.40;43.50;;;;;;5031934;28;19917;-59
2023/04/07 09:49:03;;;;;;;;;;;20.50;42.70;;;;;;5033121;28;20014;-60
2023/04/07 09:51:29;;;;;;;;;;;20.40;41.90;;;;;;5032728;28;19917;-60
2023/04/07 09:53:54;;;;;;;;;;;20.50;41.90;;;;;;5032865;28;19917;-62
2023/04/07 09:56:21;;;;;;;;;;;20.70;42.20;;;;;;5046644;28;19935;-61
2023/04/07 09:58:47;;;;;;;;;;;20.90;41.30;;;;;;5040667;28;20254;-59
2023/04/07 10:01:15;;;;;;;;;;;21.20;41.70;;;;;;5012816;28;19909;-59
2023/04/07 10:03:40;;;;;;;;;;;21.40;42.00;;;;;;5025086;28;19917;-60
2023/04/07 10:06:06;;;;;;;;;;;21.60;41.80;;;;;;5030157;28;19921;-59
2023/04/07 10:08:34;;;;;;;;;;;21.80;41.20;;;;;;5037582;28;20016;-62
2023/04/07 10:11:01;;;;;;;;;;;21.80;40.10;;;;;;5048221;28;20399;-62
2023/04/07 10:13:27;;;;;;;;;;;22.00;40.00;;;;;;5032574;28;19928;-62
2023/04/07 10:15:53;;;;;;;;;;;22.00;38.60;;;;;;5045843;28;19916;-59
2023/04/07 10:18:19;;;;;;;;;;;21.90;38.10;;;;;;5012634;28;19921;-59
2023/04/07 10:20:46;;;;;;;;;;;21.90;37.90;;;;;;5027209;28;20419;-60
2023/04/07 10:23:16;;;;;;;;;;;22.10;38.40;;;;;;5012374;28;19917;-58
2023/04/07 10:25:44;;;;;;;;;;;22.30;37.80;;;;;;5027225;28;19917;-59
2023/04/07 10:28:11;;;;;;;;;;;22.40;37.90;;;;;;5030273;28;19921;-59
2023/04/07 10:30:37;;;;;;;;;;;22.70;38.20;;;;;;5024271;28;19913;-59
2023/04/07 10:33:03;;;;;;;;;;;22.80;37.50;;;;;;5029803;28;20276;-61
2023/04/07 10:35:48;;;;;;;;;;;23.00;35.90;;;;;;5023379;28;19921;-58
2023/04/07 10:38:15;;;;;;;;;;;23.20;34.40;;;;;;5031996;28;19921;-59
2023/04/07 10:40:41;;;;;;;;;;;23.50;34.60;;;;;;5018478;28;19918;-58
2023/04/07 10:43:09;;;;;;;;;;;23.90;33.70;;;;;;5016812;28;20331;-59
2023/04/07 10:45:54;;;;;;;;;;;24.40;34.00;;;;;;5031961;28;19995;-60
2023/04/07 10:48:21;;;;;;;;;;;24.50;32.50;;;;;;5030534;28;19921;-59
2023/04/07 10:51:06;;;;;;;;;;;24.60;33.30;;;;;;5031983;28;19932;-58
2023/04/07 10:53:31;;;;;;;;;;;24.80;32.00;;;;;;5029109;28;19917;-63
2023/04/07 10:55:59;;;;;;;;;;;25.30;32.50;;;;;;5031637;28;19917;-59
2023/04/07 10:58:25;;;;;;;;;;;25.60;32.80;;;;;;5029383;28;19924;-59
2023/04/07 11:01:00;;;;;;;;;;;26.00;31.30;;;;;;5030356;28;19913;-60
2023/04/07 11:03:27;;;;;;;;;;;26.40;31.60;;;;;;5024549;28;19917;-60
2023/04/07 11:06:01;;;;;;;;;;;26.50;29.30;;;;;;5011598;28;19909;-60
2023/04/07 11:08:32;;;;;;;;;;;26.40;27.40;;;;;;5018870;28;20437;-60
2023/04/07 11:10:58;;;;;;;;;;;26.10;28.40;;;;;;5024136;28;19920;-60
2023/04/07 11:13:23;;;;;;;;;;;26.00;28.50;;;;;;5031471;28;19921;-61
2023/04/07 11:15:51;;;;;;;;;;;26.10;28.30;;;;;;5031577;28;19967;-60
2023/04/07 11:18:17;;;;;;;;;;;26.10;27.50;;;;;;5030365;28;19924;-60
2023/04/07 11:20:53;;;;;;;;;;;26.20;27.70;;;;;;5031290;28;19916;-59
2023/04/07 11:23:20;;;;;;;;;;;26.20;27.40;;;;;;5024926;28;19918;-60
2023/04/07 11:25:47;;;;;;;;;;;26.30;28.20;;;;;;5011930;28;19910;-60
2023/04/07 11:28:13;;;;;;;;;;;26.40;28.00;;;;;;5011508;28;19928;-60
2023/04/07 11:30:43;;;;;;;;;;;26.70;27.90;;;;;;5012183;28;19949;-58
2023/04/07 11:33:13;;;;;;;;;;;27.00;27.10;;;;;;5012155;28;20401;-59
2023/04/07 11:35:45;;;;;;;;;;;27.30;27.00;;;;;;5037539;28;20261;-58
2023/04/07 11:38:11;;;;;;;;;;;27.60;26.40;;;;;;5039142;28;19917;-59
2023/04/07 11:40:37;;;;;;;;;;;27.80;25.10;;;;;;5035313;28;20003;-60
2023/04/07 11:43:14;;;;;;;;;;;28.00;24.70;;;;;;5021843;28;20328;-58
2023/04/07 11:45:39;;;;;;;;;;;27.70;24.00;;;;;;5015186;28;19918;-58
2023/04/07 11:48:24;;;;;;;;;;;27.20;24.20;;;;;;5015407;28;20390;-59
2023/04/07 11:50:49;;;;;;;;;;;26.80;24.60;;;;;;5015622;28;19914;-58
2023/04/07 11:53:23;;;;;;;;;;;26.90;23.90;;;;;;5015395;28;20031;-59
2023/04/07 11:55:57;;;;;;;;;;;26.40;23.20;;;;;;5015060;28;19918;-59
2023/04/07 11:58:22;;;;;;;;;;;25.60;23.20;;;;;;5030493;28;20246;-59
2023/04/07 12:00:52;;;;;;;;;;;25.60;24.30;;;;;;5034887;28;19915;-59
2023/04/07 12:03:17;;;;;;;;;;;26.00;24.30;;;;;;5032204;28;19927;-60
2023/04/07 12:05:43;;;;;;;;;;;26.40;24.30;;;;;;5024260;28;19914;-62
2023/04/07 12:08:09;;;;;;;;;;;26.80;23.80;;;;;;5014980;28;19973;-58
2023/04/07 12:10:35;;;;;;;;;;;27.20;23.80;;;;;;5014470;28;20016;-58
2023/04/07 12:13:01;;;;;;;;;;;27.80;24.10;;;;;;5015219;28;20000;-59
2023/04/07 12:15:26;;;;;;;;;;;27.60;22.80;;;;;;5022069;28;20055;-59
2023/04/07 12:17:52;;;;;;;;;;;26.90;22.20;;;;;;5034423;28;20011;-59
2023/04/07 12:20:17;;;;;;;;;;;26.10;21.80;;;;;;5034639;28;19967;-59
2023/04/07 12:22:43;;;;;;;;;;;26.10;22.80;;;;;;5034458;28;19917;-59
2023/04/07 12:25:08;;;;;;;;;;;26.40;21.90;;;;;;5043772;28;20339;-59
2023/04/07 12:27:34;;;;;;;;;;;26.20;22.10;;;;;;5045640;28;19921;-59
2023/04/07 12:30:00;;;;;;;;;;;25.60;22.00;;;;;;5033898;28;20376;-60
2023/04/07 12:32:25;;;;;;;;;;;25.10;22.90;;;;;;5030477;28;19995;-62
2023/04/07 12:34:51;;;;;;;;;;;24.70;23.50;;;;;;5037369;28;19913;-59
2023/04/07 12:37:16;;;;;;;;;;;24.30;23.90;;;;;;5046961;28;20341;-59
2023/04/07 12:39:42;;;;;;;;;;;23.90;24.20;;;;;;5018591;28;19963;-60
2023/04/07 12:42:10;;;;;;;;;;;23.60;24.60;;;;;;5024724;28;19914;-59
2023/04/07 12:44:36;;;;;;;;;;;23.70;24.90;;;;;;5019575;28;20446;-60
2023/04/07 12:47:01;;;;;;;;;;;24.40;24.90;;;;;;5018833;28;19941;-59
2023/04/07 12:49:27;;;;;;;;;;;24.30;24.30;;;;;;5016063;28;19918;-59
2023/04/07 12:51:52;;;;;;;;;;;24.10;24.30;;;;;;5013997;28;20380;-60
2023/04/07 12:54:18;;;;;;;;;;;23.80;24.70;;;;;;5029968;28;19969;-59
2023/04/07 12:56:43;;;;;;;;;;;23.50;25.00;;;;;;5033901;28;19936;-59
2023/04/07 12:59:09;;;;;;;;;;;23.40;25.20;;;;;;5018309;28;19925;-64
2023/04/07 13:01:35;;;;;;;;;;;23.30;25.20;;;;;;5014183;28;19910;-60
2023/04/07 13:04:01;;;;;;;;;;;23.20;25.40;;;;;;5026085;28;19917;-60
2023/04/07 13:06:27;;;;;;;;;;;23.10;25.60;;;;;;5032596;28;20328;-60
2023/04/07 13:08:52;;;;;;;;;;;23.00;25.80;;;;;;5019522;28;19929;-59
2023/04/07 13:11:18;;;;;;;;;;;23.10;26.00;;;;;;5013649;28;19917;-60
2023/04/07 13:13:43;;;;;;;;;;;23.40;26.40;;;;;;5029409;28;19917;-60
2023/04/07 13:16:09;;;;;;;;;;;24.00;26.20;;;;;;5033510;28;19967;-60
2023/04/07 13:18:35;;;;;;;;;;;24.30;26.30;;;;;;5019326;28;19957;-60
2023/04/07 13:21:00;;;;;;;;;;;25.10;25.60;;;;;;5013414;28;19916;-60
2023/04/07 13:23:26;;;;;;;;;;;26.00;24.90;;;;;;5013343;28;20008;-63
2023/04/07 13:25:51;;;;;;;;;;;26.20;24.10;;;;;;5013434;28;19959;-60
2023/04/07 13:28:19;;;;;;;;;;;26.10;24.40;;;;;;5027206;28;19928;-60
2023/04/07 13:30:45;;;;;;;;;;;25.80;24.50;;;;;;5029025;28;20373;-61
2023/04/07 13:33:11;;;;;;;;;;;25.30;25.00;;;;;;5013655;28;19925;-61
2023/04/07 13:35:36;;;;;;;;;;;25.00;24.20;;;;;;5028003;28;19992;-61
2023/04/07 13:38:02;;;;;;;;;;;24.60;24.40;;;;;;5033244;28;19993;-61
2023/04/07 13:40:28;;;;;;;;;;;24.30;25.50;;;;;;5028592;28;19991;-61
2023/04/07 13:42:53;;;;;;;;;;;24.20;26.20;;;;;;5013557;28;19991;-61
2023/04/07 13:45:18;;;;;;;;;;;23.90;26.90;;;;;;5012784;28;19920;-60
2023/04/07 13:47:44;;;;;;;;;;;23.70;27.30;;;;;;5020081;28;19922;-60
2023/04/07 13:50:10;;;;;;;;;;;23.70;28.00;;;;;;5032064;28;19946;-61
2023/04/07 13:52:36;;;;;;;;;;;23.70;28.00;;;;;;5032133;28;20254;-62
2023/04/07 13:55:03;;;;;;;;;;;23.60;28.40;;;;;;5025968;28;19917;-60
2023/04/07 13:57:28;;;;;;;;;;;23.60;28.80;;;;;;5021622;28;19951;-60
2023/04/07 13:59:54;;;;;;;;;;;23.50;29.00;;;;;;5020961;28;19913;-60
2023/04/07 14:02:20;;;;;;;;;;;23.40;29.30;;;;;;5031502;28;19967;-60
2023/04/07 14:04:45;;;;;;;;;;;23.30;29.60;;;;;;5026786;28;20364;-59
2023/04/07 14:07:11;;;;;;;;;;;23.40;29.80;;;;;;5018858;28;19965;-62
2023/04/07 14:09:36;;;;;;;;;;;23.40;29.30;;;;;;5022346;28;19920;-61
2023/04/07 14:12:02;;;;;;;;;;;23.30;29.00;;;;;;5028252;28;19917;-60